sensor_id;sensor_type;location;lat;lon;timestamp;P1;durP1;ratioP1;P2;durP2;ratioP2
78648;SDS011;67962;47.310;9.642;2023-05-25T00:01:34;14.77;;;6.65;;
78648;SDS011;67962;47.310;9.642;2023-05-25T00:04:00;14.55;;;6.78;;
78648;SDS011;67962;47.310;9.642;2023-05-25T00:06:29;15.35;;;6.80;;
78648;SDS011;67962;47.310;9.642;2023-05-25T00:08:56;15.13;;;6.78;;
78648;SDS011;67962;47.310;9.642;2023-05-25T00:11:25;17.67;;;7.00;;
78648;SDS011;67962;47.310;9.642;2023-05-25T00:13:51;13.02;;;6.85;;
78648;SDS011;67962;47.310;9.642;2023-05-25T00:16:17;15.30;;;7.07;;
78648;SDS011;67962;47.310;9.642;2023-05-25T00:18:43;20.13;;;7.78;;
78648;SDS011;67962;47.310;9.642;2023-05-25T00:21:09;19.73;;;7.70;;
78648;SDS011;67962;47.310;9.642;2023-05-25T00:23:35;17.98;;;7.75;;
78648;SDS011;67962;47.310;9.642;2023-05-25T00:26:01;13.20;;;6.82;;
78648;SDS011;67962;47.310;9.642;2023-05-25T00:28:27;14.77;;;7.15;;
78648;SDS011;67962;47.310;9.642;2023-05-25T00:30:53;18.65;;;7.28;;
78648;SDS011;67962;47.310;9.642;2023-05-25T00:33:20;16.75;;;7.80;;
78648;SDS011;67962;47.310;9.642;2023-05-25T00:35:45;17.75;;;7.78;;
78648;SDS011;67962;47.310;9.642;2023-05-25T00:38:14;13.90;;;8.18;;
78648;SDS011;67962;47.310;9.642;2023-05-25T00:40:41;15.73;;;8.13;;
78648;SDS011;67962;47.310;9.642;2023-05-25T00:43:07;17.20;;;8.07;;
78648;SDS011;67962;47.310;9.642;2023-05-25T00:45:33;17.55;;;7.80;;
78648;SDS011;67962;47.310;9.642;2023-05-25T00:47:59;16.60;;;7.68;;
78648;SDS011;67962;47.310;9.642;2023-05-25T00:50:38;13.23;;;7.07;;
78648;SDS011;67962;47.310;9.642;2023-05-25T00:53:06;17.05;;;7.25;;
78648;SDS011;67962;47.310;9.642;2023-05-25T00:55:34;17.83;;;7.38;;
78648;SDS011;67962;47.310;9.642;2023-05-25T00:58:15;13.18;;;7.55;;
78648;SDS011;67962;47.310;9.642;2023-05-25T01:00:44;15.85;;;7.88;;
78648;SDS011;67962;47.310;9.642;2023-05-25T01:03:13;14.75;;;7.30;;
78648;SDS011;67962;47.310;9.642;2023-05-25T01:05:46;15.10;;;7.20;;
78648;SDS011;67962;47.310;9.642;2023-05-25T01:08:13;13.50;;;7.60;;
78648;SDS011;67962;47.310;9.642;2023-05-25T01:10:41;16.10;;;8.77;;
78648;SDS011;67962;47.310;9.642;2023-05-25T01:13:10;16.98;;;8.27;;
78648;SDS011;67962;47.310;9.642;2023-05-25T01:15:38;15.48;;;8.18;;
78648;SDS011;67962;47.310;9.642;2023-05-25T01:18:04;18.08;;;7.43;;
78648;SDS011;67962;47.310;9.642;2023-05-25T01:20:30;15.63;;;8.20;;
78648;SDS011;67962;47.310;9.642;2023-05-25T01:22:56;14.35;;;7.47;;
78648;SDS011;67962;47.310;9.642;2023-05-25T01:25:36;18.95;;;8.73;;
78648;SDS011;67962;47.310;9.642;2023-05-25T01:28:20;17.45;;;8.00;;
78648;SDS011;67962;47.310;9.642;2023-05-25T01:30:50;13.38;;;7.18;;
78648;SDS011;67962;47.310;9.642;2023-05-25T01:33:17;14.15;;;7.65;;
78648;SDS011;67962;47.310;9.642;2023-05-25T01:35:43;17.55;;;8.00;;
78648;SDS011;67962;47.310;9.642;2023-05-25T01:38:11;18.05;;;8.05;;
78648;SDS011;67962;47.310;9.642;2023-05-25T01:40:37;12.88;;;7.35;;
78648;SDS011;67962;47.310;9.642;2023-05-25T01:43:03;16.42;;;7.80;;
78648;SDS011;67962;47.310;9.642;2023-05-25T01:45:28;13.10;;;7.82;;
78648;SDS011;67962;47.310;9.642;2023-05-25T01:53:15;18.25;;;7.68;;
78648;SDS011;67962;47.310;9.642;2023-05-25T01:55:46;13.80;;;7.60;;
78648;SDS011;67962;47.310;9.642;2023-05-25T01:58:20;15.27;;;7.47;;
78648;SDS011;67962;47.310;9.642;2023-05-25T02:00:48;19.27;;;7.70;;
78648;SDS011;67962;47.310;9.642;2023-05-25T02:03:15;17.98;;;7.82;;
78648;SDS011;67962;47.310;9.642;2023-05-25T02:05:41;15.25;;;7.25;;
78648;SDS011;67962;47.310;9.642;2023-05-25T02:08:08;14.80;;;7.38;;
78648;SDS011;67962;47.310;9.642;2023-05-25T02:10:33;14.88;;;7.18;;
78648;SDS011;67962;47.310;9.642;2023-05-25T02:12:59;14.85;;;8.00;;
78648;SDS011;67962;47.310;9.642;2023-05-25T02:15:26;15.13;;;7.35;;
78648;SDS011;67962;47.310;9.642;2023-05-25T02:17:55;12.25;;;6.95;;
78648;SDS011;67962;47.310;9.642;2023-05-25T02:20:21;14.15;;;7.00;;
78648;SDS011;67962;47.310;9.642;2023-05-25T02:22:47;12.85;;;7.13;;
78648;SDS011;67962;47.310;9.642;2023-05-25T02:25:13;11.25;;;7.05;;
78648;SDS011;67962;47.310;9.642;2023-05-25T02:27:39;12.50;;;7.40;;
78648;SDS011;67962;47.310;9.642;2023-05-25T02:30:05;11.23;;;6.50;;
78648;SDS011;67962;47.310;9.642;2023-05-25T02:32:31;11.63;;;7.10;;
78648;SDS011;67962;47.310;9.642;2023-05-25T02:34:57;13.80;;;7.75;;
78648;SDS011;67962;47.310;9.642;2023-05-25T02:37:23;13.95;;;6.97;;
78648;SDS011;67962;47.310;9.642;2023-05-25T02:39:49;13.52;;;6.25;;
78648;SDS011;67962;47.310;9.642;2023-05-25T02:42:15;11.40;;;6.72;;
78648;SDS011;67962;47.310;9.642;2023-05-25T02:44:41;12.57;;;7.07;;
78648;SDS011;67962;47.310;9.642;2023-05-25T02:47:12;10.85;;;7.07;;
78648;SDS011;67962;47.310;9.642;2023-05-25T02:49:42;11.43;;;7.05;;
78648;SDS011;67962;47.310;9.642;2023-05-25T02:52:08;16.60;;;7.30;;
78648;SDS011;67962;47.310;9.642;2023-05-25T02:54:34;17.35;;;8.02;;
78648;SDS011;67962;47.310;9.642;2023-05-25T02:57:00;11.25;;;6.72;;
78648;SDS011;67962;47.310;9.642;2023-05-25T02:59:27;13.13;;;7.00;;
78648;SDS011;67962;47.310;9.642;2023-05-25T03:01:53;13.70;;;6.78;;
78648;SDS011;67962;47.310;9.642;2023-05-25T03:04:19;15.10;;;7.45;;
78648;SDS011;67962;47.310;9.642;2023-05-25T03:06:45;11.80;;;7.18;;
78648;SDS011;67962;47.310;9.642;2023-05-25T03:09:11;12.93;;;7.03;;
78648;SDS011;67962;47.310;9.642;2023-05-25T03:11:37;15.23;;;6.72;;
78648;SDS011;67962;47.310;9.642;2023-05-25T03:14:03;15.82;;;7.13;;
78648;SDS011;67962;47.310;9.642;2023-05-25T03:16:29;10.85;;;7.03;;
78648;SDS011;67962;47.310;9.642;2023-05-25T03:18:55;9.98;;;6.40;;
78648;SDS011;67962;47.310;9.642;2023-05-25T03:21:21;11.75;;;6.47;;
78648;SDS011;67962;47.310;9.642;2023-05-25T03:23:47;11.80;;;6.70;;
78648;SDS011;67962;47.310;9.642;2023-05-25T03:26:13;12.77;;;6.88;;
78648;SDS011;67962;47.310;9.642;2023-05-25T03:28:39;13.20;;;7.20;;
78648;SDS011;67962;47.310;9.642;2023-05-25T03:31:05;12.32;;;7.18;;
78648;SDS011;67962;47.310;9.642;2023-05-25T03:33:31;11.68;;;7.18;;
78648;SDS011;67962;47.310;9.642;2023-05-25T03:35:57;12.70;;;6.60;;
78648;SDS011;67962;47.310;9.642;2023-05-25T03:38:23;17.05;;;6.78;;
78648;SDS011;67962;47.310;9.642;2023-05-25T03:40:49;10.82;;;7.03;;
78648;SDS011;67962;47.310;9.642;2023-05-25T03:43:15;12.32;;;7.20;;
78648;SDS011;67962;47.310;9.642;2023-05-25T03:45:41;10.35;;;6.40;;
78648;SDS011;67962;47.310;9.642;2023-05-25T03:48:06;13.82;;;7.15;;
78648;SDS011;67962;47.310;9.642;2023-05-25T03:50:32;11.07;;;7.13;;
78648;SDS011;67962;47.310;9.642;2023-05-25T03:52:58;12.75;;;7.88;;
78648;SDS011;67962;47.310;9.642;2023-05-25T03:55:24;14.82;;;8.00;;
78648;SDS011;67962;47.310;9.642;2023-05-25T03:57:50;14.77;;;7.72;;
78648;SDS011;67962;47.310;9.642;2023-05-25T04:00:15;14.50;;;7.80;;
78648;SDS011;67962;47.310;9.642;2023-05-25T04:02:41;15.35;;;7.82;;
78648;SDS011;67962;47.310;9.642;2023-05-25T04:05:07;14.18;;;7.72;;
78648;SDS011;67962;47.310;9.642;2023-05-25T04:07:33;14.23;;;7.68;;
78648;SDS011;67962;47.310;9.642;2023-05-25T04:10:01;14.20;;;7.18;;
78648;SDS011;67962;47.310;9.642;2023-05-25T04:12:27;14.43;;;7.68;;
78648;SDS011;67962;47.310;9.642;2023-05-25T04:14:52;13.75;;;7.82;;
78648;SDS011;67962;47.310;9.642;2023-05-25T04:17:18;15.77;;;7.32;;
78648;SDS011;67962;47.310;9.642;2023-05-25T04:19:48;15.25;;;7.20;;
78648;SDS011;67962;47.310;9.642;2023-05-25T04:22:14;11.57;;;6.55;;
78648;SDS011;67962;47.310;9.642;2023-05-25T04:24:40;13.93;;;6.95;;
78648;SDS011;67962;47.310;9.642;2023-05-25T04:27:05;13.55;;;7.63;;
78648;SDS011;67962;47.310;9.642;2023-05-25T04:29:31;14.55;;;7.70;;
78648;SDS011;67962;47.310;9.642;2023-05-25T04:31:57;15.88;;;7.97;;
78648;SDS011;67962;47.310;9.642;2023-05-25T04:34:22;12.55;;;7.53;;
78648;SDS011;67962;47.310;9.642;2023-05-25T04:36:48;15.13;;;7.10;;
78648;SDS011;67962;47.310;9.642;2023-05-25T04:39:14;16.63;;;7.30;;
78648;SDS011;67962;47.310;9.642;2023-05-25T04:41:40;15.45;;;8.15;;
78648;SDS011;67962;47.310;9.642;2023-05-25T04:44:07;14.07;;;6.63;;
78648;SDS011;67962;47.310;9.642;2023-05-25T04:46:33;14.68;;;7.28;;
78648;SDS011;67962;47.310;9.642;2023-05-25T04:49:02;15.63;;;7.50;;
78648;SDS011;67962;47.310;9.642;2023-05-25T04:51:29;15.18;;;7.78;;
78648;SDS011;67962;47.310;9.642;2023-05-25T04:53:56;14.55;;;7.80;;
78648;SDS011;67962;47.310;9.642;2023-05-25T04:56:22;15.05;;;7.47;;
78648;SDS011;67962;47.310;9.642;2023-05-25T04:58:50;13.25;;;7.90;;
78648;SDS011;67962;47.310;9.642;2023-05-25T05:01:17;12.82;;;7.90;;
78648;SDS011;67962;47.310;9.642;2023-05-25T05:03:46;16.67;;;8.25;;
78648;SDS011;67962;47.310;9.642;2023-05-25T05:06:11;16.15;;;7.95;;
78648;SDS011;67962;47.310;9.642;2023-05-25T05:08:37;14.07;;;7.57;;
78648;SDS011;67962;47.310;9.642;2023-05-25T05:11:03;18.65;;;9.05;;
78648;SDS011;67962;47.310;9.642;2023-05-25T05:13:29;23.02;;;10.40;;
78648;SDS011;67962;47.310;9.642;2023-05-25T05:15:54;20.23;;;9.80;;
78648;SDS011;67962;47.310;9.642;2023-05-25T05:18:20;15.93;;;9.40;;
78648;SDS011;67962;47.310;9.642;2023-05-25T05:20:46;15.82;;;9.13;;
78648;SDS011;67962;47.310;9.642;2023-05-25T05:23:12;19.70;;;8.73;;
78648;SDS011;67962;47.310;9.642;2023-05-25T05:25:38;18.48;;;9.13;;
78648;SDS011;67962;47.310;9.642;2023-05-25T05:28:03;16.35;;;9.20;;
78648;SDS011;67962;47.310;9.642;2023-05-25T05:30:29;18.55;;;9.07;;
78648;SDS011;67962;47.310;9.642;2023-05-25T05:32:55;20.27;;;9.55;;
78648;SDS011;67962;47.310;9.642;2023-05-25T05:35:21;15.32;;;9.38;;
78648;SDS011;67962;47.310;9.642;2023-05-25T05:37:47;17.02;;;8.55;;
78648;SDS011;67962;47.310;9.642;2023-05-25T05:40:12;16.90;;;9.45;;
78648;SDS011;67962;47.310;9.642;2023-05-25T05:42:38;21.02;;;9.70;;
78648;SDS011;67962;47.310;9.642;2023-05-25T05:45:04;18.48;;;9.23;;
78648;SDS011;67962;47.310;9.642;2023-05-25T05:47:30;18.80;;;9.80;;
78648;SDS011;67962;47.310;9.642;2023-05-25T05:49:56;21.02;;;9.48;;
78648;SDS011;67962;47.310;9.642;2023-05-25T05:52:22;16.25;;;9.05;;
78648;SDS011;67962;47.310;9.642;2023-05-25T05:54:47;18.70;;;9.13;;
78648;SDS011;67962;47.310;9.642;2023-05-25T05:57:13;18.25;;;9.13;;
78648;SDS011;67962;47.310;9.642;2023-05-25T05:59:39;17.60;;;9.05;;
78648;SDS011;67962;47.310;9.642;2023-05-25T06:02:06;15.00;;;8.48;;
78648;SDS011;67962;47.310;9.642;2023-05-25T06:04:32;19.30;;;8.70;;
78648;SDS011;67962;47.310;9.642;2023-05-25T06:06:57;18.70;;;9.77;;
78648;SDS011;67962;47.310;9.642;2023-05-25T06:09:23;17.85;;;8.98;;
78648;SDS011;67962;47.310;9.642;2023-05-25T06:11:50;17.77;;;9.15;;
78648;SDS011;67962;47.310;9.642;2023-05-25T06:14:16;15.38;;;8.57;;
78648;SDS011;67962;47.310;9.642;2023-05-25T06:16:42;16.88;;;7.85;;
78648;SDS011;67962;47.310;9.642;2023-05-25T06:19:07;15.27;;;7.85;;
78648;SDS011;67962;47.310;9.642;2023-05-25T06:21:33;14.10;;;7.85;;
78648;SDS011;67962;47.310;9.642;2023-05-25T06:23:59;11.80;;;7.35;;
78648;SDS011;67962;47.310;9.642;2023-05-25T06:26:24;12.32;;;6.50;;
78648;SDS011;67962;47.310;9.642;2023-05-25T06:28:51;12.07;;;6.68;;
78648;SDS011;67962;47.310;9.642;2023-05-25T06:31:17;6.63;;;4.35;;
78648;SDS011;67962;47.310;9.642;2023-05-25T06:33:43;8.32;;;4.13;;
78648;SDS011;67962;47.310;9.642;2023-05-25T06:36:08;7.72;;;4.10;;
78648;SDS011;67962;47.310;9.642;2023-05-25T06:38:35;7.75;;;4.15;;
78648;SDS011;67962;47.310;9.642;2023-05-25T06:41:00;6.68;;;4.20;;
78648;SDS011;67962;47.310;9.642;2023-05-25T06:43:28;7.72;;;4.10;;
78648;SDS011;67962;47.310;9.642;2023-05-25T06:45:56;6.32;;;4.15;;
78648;SDS011;67962;47.310;9.642;2023-05-25T06:48:22;7.15;;;3.75;;
78648;SDS011;67962;47.310;9.642;2023-05-25T06:50:47;6.40;;;3.90;;
78648;SDS011;67962;47.310;9.642;2023-05-25T06:53:13;6.68;;;3.95;;
78648;SDS011;67962;47.310;9.642;2023-05-25T06:55:39;6.38;;;3.58;;
78648;SDS011;67962;47.310;9.642;2023-05-25T06:58:05;6.28;;;3.75;;
78648;SDS011;67962;47.310;9.642;2023-05-25T07:00:31;8.70;;;4.10;;
78648;SDS011;67962;47.310;9.642;2023-05-25T07:02:56;8.55;;;4.10;;
78648;SDS011;67962;47.310;9.642;2023-05-25T07:05:22;8.30;;;3.90;;
78648;SDS011;67962;47.310;9.642;2023-05-25T07:07:48;7.78;;;3.80;;
78648;SDS011;67962;47.310;9.642;2023-05-25T07:10:13;5.55;;;3.55;;
78648;SDS011;67962;47.310;9.642;2023-05-25T07:12:39;5.68;;;3.70;;
78648;SDS011;67962;47.310;9.642;2023-05-25T07:15:05;5.82;;;3.65;;
78648;SDS011;67962;47.310;9.642;2023-05-25T07:17:31;5.78;;;3.13;;
78648;SDS011;67962;47.310;9.642;2023-05-25T07:19:57;5.32;;;3.20;;
78648;SDS011;67962;47.310;9.642;2023-05-25T07:22:22;6.00;;;3.15;;
78648;SDS011;67962;47.310;9.642;2023-05-25T07:24:49;5.63;;;3.13;;
78648;SDS011;67962;47.310;9.642;2023-05-25T07:27:15;6.65;;;3.30;;
78648;SDS011;67962;47.310;9.642;2023-05-25T07:29:40;6.55;;;3.03;;
78648;SDS011;67962;47.310;9.642;2023-05-25T07:32:06;5.63;;;3.25;;
78648;SDS011;67962;47.310;9.642;2023-05-25T07:34:32;4.82;;;3.30;;
78648;SDS011;67962;47.310;9.642;2023-05-25T07:36:58;4.60;;;3.28;;
78648;SDS011;67962;47.310;9.642;2023-05-25T07:39:24;7.25;;;3.53;;
78648;SDS011;67962;47.310;9.642;2023-05-25T07:41:50;4.15;;;2.80;;
78648;SDS011;67962;47.310;9.642;2023-05-25T07:44:16;4.95;;;3.20;;
78648;SDS011;67962;47.310;9.642;2023-05-25T07:46:42;4.40;;;2.95;;
78648;SDS011;67962;47.310;9.642;2023-05-25T07:49:08;6.75;;;3.00;;
78648;SDS011;67962;47.310;9.642;2023-05-25T07:51:39;4.63;;;2.92;;
78648;SDS011;67962;47.310;9.642;2023-05-25T07:54:11;5.10;;;3.30;;
78648;SDS011;67962;47.310;9.642;2023-05-25T07:56:37;6.35;;;3.33;;
78648;SDS011;67962;47.310;9.642;2023-05-25T07:59:03;4.53;;;3.00;;
78648;SDS011;67962;47.310;9.642;2023-05-25T08:01:29;6.15;;;3.20;;
78648;SDS011;67962;47.310;9.642;2023-05-25T08:03:55;4.88;;;2.92;;
78648;SDS011;67962;47.310;9.642;2023-05-25T08:06:21;5.50;;;3.25;;
78648;SDS011;67962;47.310;9.642;2023-05-25T08:08:47;4.72;;;3.13;;
78648;SDS011;67962;47.310;9.642;2023-05-25T08:11:14;4.57;;;3.28;;
78648;SDS011;67962;47.310;9.642;2023-05-25T08:13:41;4.53;;;3.42;;
78648;SDS011;67962;47.310;9.642;2023-05-25T08:16:06;3.80;;;2.88;;
78648;SDS011;67962;47.310;9.642;2023-05-25T08:18:33;4.32;;;2.95;;
78648;SDS011;67962;47.310;9.642;2023-05-25T08:20:59;4.97;;;2.92;;
78648;SDS011;67962;47.310;9.642;2023-05-25T08:23:25;5.53;;;3.03;;
78648;SDS011;67962;47.310;9.642;2023-05-25T08:25:50;4.25;;;3.03;;
78648;SDS011;67962;47.310;9.642;2023-05-25T08:28:17;4.65;;;2.80;;
78648;SDS011;67962;47.310;9.642;2023-05-25T08:30:44;4.85;;;3.13;;
78648;SDS011;67962;47.310;9.642;2023-05-25T08:33:10;4.53;;;2.83;;
78648;SDS011;67962;47.310;9.642;2023-05-25T08:35:36;6.03;;;3.50;;
78648;SDS011;67962;47.310;9.642;2023-05-25T08:38:04;5.25;;;2.92;;
78648;SDS011;67962;47.310;9.642;2023-05-25T08:40:30;5.72;;;3.30;;
78648;SDS011;67962;47.310;9.642;2023-05-25T08:42:56;8.75;;;3.58;;
78648;SDS011;67962;47.310;9.642;2023-05-25T08:45:22;4.15;;;3.03;;
78648;SDS011;67962;47.310;9.642;2023-05-25T08:47:48;5.60;;;3.67;;
78648;SDS011;67962;47.310;9.642;2023-05-25T08:50:22;4.80;;;3.22;;
78648;SDS011;67962;47.310;9.642;2023-05-25T08:52:50;7.25;;;3.60;;
78648;SDS011;67962;47.310;9.642;2023-05-25T08:55:18;4.03;;;3.10;;
78648;SDS011;67962;47.310;9.642;2023-05-25T08:57:54;4.70;;;2.60;;
78648;SDS011;67962;47.310;9.642;2023-05-25T09:00:37;3.60;;;2.55;;
78648;SDS011;67962;47.310;9.642;2023-05-25T09:03:15;3.33;;;2.08;;
78648;SDS011;67962;47.310;9.642;2023-05-25T09:05:44;2.92;;;2.20;;
78648;SDS011;67962;47.310;9.642;2023-05-25T09:08:11;3.63;;;2.00;;
78648;SDS011;67962;47.310;9.642;2023-05-25T09:10:37;3.08;;;1.95;;
78648;SDS011;67962;47.310;9.642;2023-05-25T09:13:04;4.40;;;2.15;;
78648;SDS011;67962;47.310;9.642;2023-05-25T09:15:30;3.47;;;2.22;;
78648;SDS011;67962;47.310;9.642;2023-05-25T09:17:57;3.42;;;2.30;;
78648;SDS011;67962;47.310;9.642;2023-05-25T09:20:22;4.03;;;2.53;;
78648;SDS011;67962;47.310;9.642;2023-05-25T09:22:48;6.00;;;2.17;;
78648;SDS011;67962;47.310;9.642;2023-05-25T09:25:18;4.47;;;2.50;;
78648;SDS011;67962;47.310;9.642;2023-05-25T09:27:47;3.58;;;2.08;;
78648;SDS011;67962;47.310;9.642;2023-05-25T09:30:13;2.75;;;1.90;;
78648;SDS011;67962;47.310;9.642;2023-05-25T09:32:40;4.53;;;2.35;;
78648;SDS011;67962;47.310;9.642;2023-05-25T09:35:06;3.58;;;1.80;;
78648;SDS011;67962;47.310;9.642;2023-05-25T09:37:32;3.05;;;1.90;;
78648;SDS011;67962;47.310;9.642;2023-05-25T09:39:58;4.20;;;1.92;;
78648;SDS011;67962;47.310;9.642;2023-05-25T09:42:24;3.25;;;2.00;;
78648;SDS011;67962;47.310;9.642;2023-05-25T09:44:50;3.85;;;1.92;;
78648;SDS011;67962;47.310;9.642;2023-05-25T09:47:16;5.75;;;3.28;;
78648;SDS011;67962;47.310;9.642;2023-05-25T09:49:42;5.00;;;3.17;;
78648;SDS011;67962;47.310;9.642;2023-05-25T09:52:11;5.28;;;3.53;;
78648;SDS011;67962;47.310;9.642;2023-05-25T09:54:38;7.63;;;3.25;;
78648;SDS011;67962;47.310;9.642;2023-05-25T09:57:07;4.68;;;3.25;;
78648;SDS011;67962;47.310;9.642;2023-05-25T09:59:34;3.97;;;3.30;;
78648;SDS011;67962;47.310;9.642;2023-05-25T10:02:00;4.20;;;2.85;;
78648;SDS011;67962;47.310;9.642;2023-05-25T10:04:26;4.53;;;2.92;;
78648;SDS011;67962;47.310;9.642;2023-05-25T10:06:51;5.60;;;3.20;;
78648;SDS011;67962;47.310;9.642;2023-05-25T10:09:20;5.93;;;3.10;;
78648;SDS011;67962;47.310;9.642;2023-05-25T10:11:50;4.93;;;2.92;;
78648;SDS011;67962;47.310;9.642;2023-05-25T10:14:18;3.63;;;2.78;;
78648;SDS011;67962;47.310;9.642;2023-05-25T10:16:58;4.63;;;2.78;;
78648;SDS011;67962;47.310;9.642;2023-05-25T10:19:35;8.30;;;3.22;;
78648;SDS011;67962;47.310;9.642;2023-05-25T10:22:12;3.63;;;2.22;;
78648;SDS011;67962;47.310;9.642;2023-05-25T10:25:02;5.32;;;2.70;;
78648;SDS011;67962;47.310;9.642;2023-05-25T10:27:38;4.95;;;2.67;;
78648;SDS011;67962;47.310;9.642;2023-05-25T10:30:05;5.15;;;2.88;;
78648;SDS011;67962;47.310;9.642;2023-05-25T10:32:34;4.10;;;2.45;;
78648;SDS011;67962;47.310;9.642;2023-05-25T10:35:02;5.72;;;2.67;;
78648;SDS011;67962;47.310;9.642;2023-05-25T10:37:29;5.03;;;2.60;;
78648;SDS011;67962;47.310;9.642;2023-05-25T10:39:56;3.08;;;2.53;;
78648;SDS011;67962;47.310;9.642;2023-05-25T10:42:24;4.90;;;2.45;;
78648;SDS011;67962;47.310;9.642;2023-05-25T10:44:51;3.72;;;2.67;;
78648;SDS011;67962;47.310;9.642;2023-05-25T10:47:18;4.57;;;2.55;;
78648;SDS011;67962;47.310;9.642;2023-05-25T10:49:55;5.53;;;3.13;;
78648;SDS011;67962;47.310;9.642;2023-05-25T10:52:30;4.65;;;2.58;;
78648;SDS011;67962;47.310;9.642;2023-05-25T10:54:58;7.50;;;3.00;;
78648;SDS011;67962;47.310;9.642;2023-05-25T10:57:31;5.10;;;3.05;;
78648;SDS011;67962;47.310;9.642;2023-05-25T11:00:04;4.07;;;2.70;;
78648;SDS011;67962;47.310;9.642;2023-05-25T11:02:48;4.45;;;2.72;;
78648;SDS011;67962;47.310;9.642;2023-05-25T11:07:56;8.63;;;2.97;;
78648;SDS011;67962;47.310;9.642;2023-05-25T11:18:42;5.15;;;3.35;;
78648;SDS011;67962;47.310;9.642;2023-05-25T11:26:29;5.82;;;3.47;;
78648;SDS011;67962;47.310;9.642;2023-05-25T11:28:57;6.15;;;3.50;;
78648;SDS011;67962;47.310;9.642;2023-05-25T11:31:28;5.65;;;3.80;;
78648;SDS011;67962;47.310;9.642;2023-05-25T11:33:56;6.72;;;3.88;;
78648;SDS011;67962;47.310;9.642;2023-05-25T11:36:25;5.15;;;3.13;;
78648;SDS011;67962;47.310;9.642;2023-05-25T11:38:52;4.32;;;2.97;;
78648;SDS011;67962;47.310;9.642;2023-05-25T11:41:18;3.92;;;3.28;;
78648;SDS011;67962;47.310;9.642;2023-05-25T11:43:48;4.57;;;3.13;;
78648;SDS011;67962;47.310;9.642;2023-05-25T11:46:17;7.35;;;4.07;;
78648;SDS011;67962;47.310;9.642;2023-05-25T11:48:50;4.35;;;3.45;;
78648;SDS011;67962;47.310;9.642;2023-05-25T11:51:17;6.28;;;3.47;;
78648;SDS011;67962;47.310;9.642;2023-05-25T11:53:48;5.72;;;4.10;;
78648;SDS011;67962;47.310;9.642;2023-05-25T11:56:14;7.07;;;3.80;;
78648;SDS011;67962;47.310;9.642;2023-05-25T11:58:41;6.57;;;4.15;;
78648;SDS011;67962;47.310;9.642;2023-05-25T12:01:20;6.68;;;4.20;;
78648;SDS011;67962;47.310;9.642;2023-05-25T12:03:48;6.22;;;4.05;;
78648;SDS011;67962;47.310;9.642;2023-05-25T12:06:29;6.40;;;4.40;;
78648;SDS011;67962;47.310;9.642;2023-05-25T12:08:58;5.65;;;3.58;;
78648;SDS011;67962;47.310;9.642;2023-05-25T12:11:33;6.15;;;4.05;;
78648;SDS011;67962;47.310;9.642;2023-05-25T12:14:03;5.28;;;3.55;;
78648;SDS011;67962;47.310;9.642;2023-05-25T12:16:32;7.45;;;4.50;;
78648;SDS011;67962;47.310;9.642;2023-05-25T12:18:59;6.47;;;4.18;;
78648;SDS011;67962;47.310;9.642;2023-05-25T12:21:25;5.40;;;4.03;;
78648;SDS011;67962;47.310;9.642;2023-05-25T12:23:52;6.75;;;4.13;;
78648;SDS011;67962;47.310;9.642;2023-05-25T12:26:19;6.38;;;4.38;;
78648;SDS011;67962;47.310;9.642;2023-05-25T12:29:04;7.30;;;4.65;;
78648;SDS011;67962;47.310;9.642;2023-05-25T12:31:33;6.07;;;3.80;;
78648;SDS011;67962;47.310;9.642;2023-05-25T12:39:08;9.70;;;4.53;;
78648;SDS011;67962;47.310;9.642;2023-05-25T12:41:42;6.20;;;4.03;;
78648;SDS011;67962;47.310;9.642;2023-05-25T12:46:51;7.38;;;4.55;;
78648;SDS011;67962;47.310;9.642;2023-05-25T12:51:57;8.30;;;5.57;;
78648;SDS011;67962;47.310;9.642;2023-05-25T12:57:12;6.55;;;4.80;;
78648;SDS011;67962;47.310;9.642;2023-05-25T12:59:42;7.78;;;5.43;;
78648;SDS011;67962;47.310;9.642;2023-05-25T13:02:10;7.05;;;4.57;;
78648;SDS011;67962;47.310;9.642;2023-05-25T13:04:37;7.88;;;5.53;;
78648;SDS011;67962;47.310;9.642;2023-05-25T13:07:04;10.10;;;5.43;;
78648;SDS011;67962;47.310;9.642;2023-05-25T13:09:33;7.20;;;5.10;;
78648;SDS011;67962;47.310;9.642;2023-05-25T13:11:59;8.07;;;5.20;;
78648;SDS011;67962;47.310;9.642;2023-05-25T13:14:27;9.57;;;6.00;;
78648;SDS011;67962;47.310;9.642;2023-05-25T13:16:54;8.40;;;5.18;;
78648;SDS011;67962;47.310;9.642;2023-05-25T13:19:22;7.68;;;5.78;;
78648;SDS011;67962;47.310;9.642;2023-05-25T13:21:49;8.65;;;4.50;;
78648;SDS011;67962;47.310;9.642;2023-05-25T13:24:16;8.23;;;5.18;;
78648;SDS011;67962;47.310;9.642;2023-05-25T13:26:45;8.13;;;5.18;;
78648;SDS011;67962;47.310;9.642;2023-05-25T13:29:11;7.63;;;5.13;;
78648;SDS011;67962;47.310;9.642;2023-05-25T13:31:37;9.40;;;6.03;;
78648;SDS011;67962;47.310;9.642;2023-05-25T13:34:03;9.05;;;5.47;;
78648;SDS011;67962;47.310;9.642;2023-05-25T13:36:28;8.93;;;5.72;;
78648;SDS011;67962;47.310;9.642;2023-05-25T13:38:57;8.23;;;5.70;;
78648;SDS011;67962;47.310;9.642;2023-05-25T13:41:23;8.55;;;6.00;;
78648;SDS011;67962;47.310;9.642;2023-05-25T13:43:49;10.85;;;5.68;;
78648;SDS011;67962;47.310;9.642;2023-05-25T13:46:14;10.40;;;6.15;;
78648;SDS011;67962;47.310;9.642;2023-05-25T13:48:40;11.43;;;5.68;;
78648;SDS011;67962;47.310;9.642;2023-05-25T13:51:11;9.13;;;5.93;;
78648;SDS011;67962;47.310;9.642;2023-05-25T13:53:40;9.85;;;6.32;;
78648;SDS011;67962;47.310;9.642;2023-05-25T13:56:10;8.65;;;5.72;;
78648;SDS011;67962;47.310;9.642;2023-05-25T13:58:36;9.40;;;6.53;;
78648;SDS011;67962;47.310;9.642;2023-05-25T14:01:02;9.35;;;6.13;;
78648;SDS011;67962;47.310;9.642;2023-05-25T14:03:28;12.65;;;6.53;;
78648;SDS011;67962;47.310;9.642;2023-05-25T14:05:54;13.32;;;6.43;;
78648;SDS011;67962;47.310;9.642;2023-05-25T14:08:20;11.70;;;6.88;;
78648;SDS011;67962;47.310;9.642;2023-05-25T14:10:45;10.93;;;6.80;;
78648;SDS011;67962;47.310;9.642;2023-05-25T14:13:11;12.13;;;6.75;;
78648;SDS011;67962;47.310;9.642;2023-05-25T14:15:37;11.93;;;7.05;;
78648;SDS011;67962;47.310;9.642;2023-05-25T14:18:03;13.70;;;7.20;;
78648;SDS011;67962;47.310;9.642;2023-05-25T14:20:28;9.40;;;6.60;;
78648;SDS011;67962;47.310;9.642;2023-05-25T14:22:57;14.73;;;7.00;;
78648;SDS011;67962;47.310;9.642;2023-05-25T14:25:24;11.10;;;6.75;;
78648;SDS011;67962;47.310;9.642;2023-05-25T14:27:50;11.77;;;6.95;;
78648;SDS011;67962;47.310;9.642;2023-05-25T14:30:15;12.70;;;6.85;;
78648;SDS011;67962;47.310;9.642;2023-05-25T14:32:41;10.27;;;6.82;;
78648;SDS011;67962;47.310;9.642;2023-05-25T14:35:07;5.05;;;3.10;;
78648;SDS011;67962;47.310;9.642;2023-05-25T14:37:33;10.65;;;6.43;;
78648;SDS011;67962;47.310;9.642;2023-05-25T14:39:58;12.07;;;7.53;;
78648;SDS011;67962;47.310;9.642;2023-05-25T14:42:24;11.18;;;7.07;;
78648;SDS011;67962;47.310;9.642;2023-05-25T14:44:50;14.60;;;7.38;;
78648;SDS011;67962;47.310;9.642;2023-05-25T14:47:16;13.13;;;8.32;;
78648;SDS011;67962;47.310;9.642;2023-05-25T14:49:41;12.23;;;7.72;;
78648;SDS011;67962;47.310;9.642;2023-05-25T14:52:07;12.18;;;7.38;;
78648;SDS011;67962;47.310;9.642;2023-05-25T14:54:33;11.93;;;7.90;;
78648;SDS011;67962;47.310;9.642;2023-05-25T14:56:59;10.85;;;7.35;;
78648;SDS011;67962;47.310;9.642;2023-05-25T14:59:25;13.30;;;8.07;;
78648;SDS011;67962;47.310;9.642;2023-05-25T15:01:51;13.70;;;7.88;;
78648;SDS011;67962;47.310;9.642;2023-05-25T15:04:17;14.07;;;7.72;;
78648;SDS011;67962;47.310;9.642;2023-05-25T15:06:43;17.00;;;8.05;;
78648;SDS011;67962;47.310;9.642;2023-05-25T15:09:08;14.75;;;7.93;;
78648;SDS011;67962;47.310;9.642;2023-05-25T15:11:34;10.65;;;7.07;;
78648;SDS011;67962;47.310;9.642;2023-05-25T15:14:00;13.73;;;7.72;;
78648;SDS011;67962;47.310;9.642;2023-05-25T15:16:25;12.82;;;7.20;;